sensor_id;sensor_type;location;lat;lon;timestamp;P1;durP1;ratioP1;P2;durP2;ratioP2
63217;SDS011;49314;48.278;16.378;2024-02-28T00:01:25;8.70;;;7.80;;
63217;SDS011;49314;48.278;16.378;2024-02-28T00:03:51;7.75;;;6.95;;
63217;SDS011;49314;48.278;16.378;2024-02-28T00:06:16;8.20;;;6.70;;
63217;SDS011;49314;48.278;16.378;2024-02-28T00:08:42;8.88;;;6.35;;
63217;SDS011;49314;48.278;16.378;2024-02-28T00:11:07;7.75;;;7.03;;
63217;SDS011;49314;48.278;16.378;2024-02-28T00:13:32;7.95;;;7.15;;
63217;SDS011;49314;48.278;16.378;2024-02-28T00:15:58;8.60;;;7.80;;
63217;SDS011;49314;48.278;16.378;2024-02-28T00:18:23;9.07;;;8.27;;
63217;SDS011;49314;48.278;16.378;2024-02-28T00:20:48;8.30;;;7.50;;
63217;SDS011;49314;48.278;16.378;2024-02-28T00:23:14;7.72;;;7.00;;
63217;SDS011;49314;48.278;16.378;2024-02-28T00:25:39;8.02;;;7.30;;
63217;SDS011;49314;48.278;16.378;2024-02-28T00:28:04;7.18;;;6.57;;
63217;SDS011;49314;48.278;16.378;2024-02-28T00:30:29;8.27;;;7.18;;
63217;SDS011;49314;48.278;16.378;2024-02-28T00:32:55;9.25;;;7.18;;
63217;SDS011;49314;48.278;16.378;2024-02-28T00:35:20;8.70;;;7.55;;
63217;SDS011;49314;48.278;16.378;2024-02-28T00:37:45;8.40;;;7.60;;
63217;SDS011;49314;48.278;16.378;2024-02-28T00:40:11;8.15;;;7.35;;
63217;SDS011;49314;48.278;16.378;2024-02-28T00:42:36;9.43;;;7.97;;
63217;SDS011;49314;48.278;16.378;2024-02-28T00:45:01;8.85;;;7.95;;
63217;SDS011;49314;48.278;16.378;2024-02-28T00:47:27;8.30;;;7.50;;
63217;SDS011;49314;48.278;16.378;2024-02-28T00:49:53;8.98;;;7.63;;
63217;SDS011;49314;48.278;16.378;2024-02-28T00:52:18;13.57;;;8.13;;
63217;SDS011;49314;48.278;16.378;2024-02-28T00:54:43;9.70;;;7.68;;
63217;SDS011;49314;48.278;16.378;2024-02-28T00:57:08;8.98;;;7.80;;
63217;SDS011;49314;48.278;16.378;2024-02-28T00:59:34;8.48;;;7.28;;
63217;SDS011;49314;48.278;16.378;2024-02-28T01:01:59;8.43;;;7.10;;
63217;SDS011;49314;48.278;16.378;2024-02-28T01:04:24;9.38;;;7.18;;
63217;SDS011;49314;48.278;16.378;2024-02-28T01:06:49;8.85;;;7.38;;
63217;SDS011;49314;48.278;16.378;2024-02-28T01:09:15;7.97;;;7.28;;
63217;SDS011;49314;48.278;16.378;2024-02-28T01:11:40;8.68;;;7.78;;
63217;SDS011;49314;48.278;16.378;2024-02-28T01:14:05;10.90;;;8.15;;
63217;SDS011;49314;48.278;16.378;2024-02-28T01:16:30;9.52;;;6.75;;
63217;SDS011;49314;48.278;16.378;2024-02-28T01:18:56;9.05;;;8.02;;
63217;SDS011;49314;48.278;16.378;2024-02-28T01:21:21;8.75;;;7.90;;
63217;SDS011;49314;48.278;16.378;2024-02-28T01:23:46;8.23;;;7.18;;
63217;SDS011;49314;48.278;16.378;2024-02-28T01:26:12;11.80;;;7.43;;
63217;SDS011;49314;48.278;16.378;2024-02-28T01:28:37;8.98;;;7.70;;
63217;SDS011;49314;48.278;16.378;2024-02-28T01:31:02;9.68;;;7.85;;
63217;SDS011;49314;48.278;16.378;2024-02-28T01:33:28;13.73;;;7.80;;
63217;SDS011;49314;48.278;16.378;2024-02-28T01:35:53;8.18;;;7.45;;
63217;SDS011;49314;48.278;16.378;2024-02-28T01:38:18;11.30;;;8.80;;
63217;SDS011;49314;48.278;16.378;2024-02-28T01:40:46;9.60;;;8.57;;
63217;SDS011;49314;48.278;16.378;2024-02-28T01:43:12;8.60;;;7.60;;
63217;SDS011;49314;48.278;16.378;2024-02-28T01:45:37;10.80;;;8.05;;
63217;SDS011;49314;48.278;16.378;2024-02-28T01:48:03;9.27;;;7.28;;
63217;SDS011;49314;48.278;16.378;2024-02-28T01:50:30;7.35;;;6.65;;
63217;SDS011;49314;48.278;16.378;2024-02-28T01:52:56;8.85;;;8.05;;
63217;SDS011;49314;48.278;16.378;2024-02-28T01:55:21;7.40;;;6.70;;
63217;SDS011;49314;48.278;16.378;2024-02-28T01:57:47;8.80;;;8.00;;
63217;SDS011;49314;48.278;16.378;2024-02-28T02:00:12;14.38;;;9.70;;
63217;SDS011;49314;48.278;16.378;2024-02-28T02:02:38;10.98;;;8.48;;
63217;SDS011;49314;48.278;16.378;2024-02-28T02:05:03;8.18;;;7.45;;
63217;SDS011;49314;48.278;16.378;2024-02-28T02:07:29;9.25;;;6.90;;
63217;SDS011;49314;48.278;16.378;2024-02-28T02:09:54;7.93;;;7.18;;
63217;SDS011;49314;48.278;16.378;2024-02-28T02:12:21;9.18;;;6.95;;
63217;SDS011;49314;48.278;16.378;2024-02-28T02:14:47;9.23;;;7.80;;
63217;SDS011;49314;48.278;16.378;2024-02-28T02:17:12;8.70;;;7.80;;
63217;SDS011;49314;48.278;16.378;2024-02-28T02:19:37;9.05;;;7.55;;
63217;SDS011;49314;48.278;16.378;2024-02-28T02:22:03;9.35;;;8.45;;
63217;SDS011;49314;48.278;16.378;2024-02-28T02:24:30;25.98;;;18.08;;
63217;SDS011;49314;48.278;16.378;2024-02-28T02:26:58;10.80;;;8.93;;
63217;SDS011;49314;48.278;16.378;2024-02-28T02:29:24;9.60;;;8.70;;
63217;SDS011;49314;48.278;16.378;2024-02-28T02:31:49;8.68;;;7.82;;
63217;SDS011;49314;48.278;16.378;2024-02-28T02:34:14;10.93;;;7.97;;
63217;SDS011;49314;48.278;16.378;2024-02-28T02:36:39;17.35;;;12.90;;
63217;SDS011;49314;48.278;16.378;2024-02-28T02:39:05;20.15;;;14.70;;
63217;SDS011;49314;48.278;16.378;2024-02-28T02:41:32;18.05;;;14.43;;
63217;SDS011;49314;48.278;16.378;2024-02-28T02:43:58;12.43;;;9.63;;
63217;SDS011;49314;48.278;16.378;2024-02-28T02:46:23;12.48;;;10.48;;
63217;SDS011;49314;48.278;16.378;2024-02-28T02:48:48;9.07;;;8.18;;
63217;SDS011;49314;48.278;16.378;2024-02-28T02:51:13;11.93;;;8.57;;
63217;SDS011;49314;48.278;16.378;2024-02-28T02:53:39;11.70;;;9.50;;
63217;SDS011;49314;48.278;16.378;2024-02-28T02:56:04;11.10;;;8.95;;
63217;SDS011;49314;48.278;16.378;2024-02-28T02:58:30;11.13;;;9.45;;
63217;SDS011;49314;48.278;16.378;2024-02-28T03:00:55;12.05;;;10.82;;
63217;SDS011;49314;48.278;16.378;2024-02-28T03:03:20;13.52;;;10.32;;
63217;SDS011;49314;48.278;16.378;2024-02-28T03:05:45;11.70;;;10.48;;
63217;SDS011;49314;48.278;16.378;2024-02-28T03:08:11;14.18;;;12.85;;
63217;SDS011;49314;48.278;16.378;2024-02-28T03:10:36;13.60;;;12.02;;
63217;SDS011;49314;48.278;16.378;2024-02-28T03:13:01;13.93;;;12.13;;
63217;SDS011;49314;48.278;16.378;2024-02-28T03:15:27;13.90;;;12.55;;
63217;SDS011;49314;48.278;16.378;2024-02-28T03:17:52;13.30;;;11.98;;
63217;SDS011;49314;48.278;16.378;2024-02-28T03:20:17;13.77;;;11.98;;
63217;SDS011;49314;48.278;16.378;2024-02-28T03:22:42;15.98;;;14.18;;
63217;SDS011;49314;48.278;16.378;2024-02-28T03:25:08;16.42;;;14.02;;
63217;SDS011;49314;48.278;16.378;2024-02-28T03:27:34;15.93;;;14.45;;
63217;SDS011;49314;48.278;16.378;2024-02-28T03:29:59;16.08;;;14.45;;
63217;SDS011;49314;48.278;16.378;2024-02-28T03:32:25;18.05;;;16.05;;
63217;SDS011;49314;48.278;16.378;2024-02-28T03:34:50;18.67;;;15.82;;
63217;SDS011;49314;48.278;16.378;2024-02-28T03:37:15;18.00;;;16.10;;
63217;SDS011;49314;48.278;16.378;2024-02-28T03:39:40;19.92;;;17.85;;
63217;SDS011;49314;48.278;16.378;2024-02-28T03:42:06;19.48;;;17.27;;
63217;SDS011;49314;48.278;16.378;2024-02-28T03:44:31;16.10;;;14.55;;
63217;SDS011;49314;48.278;16.378;2024-02-28T03:46:56;18.38;;;14.90;;
63217;SDS011;49314;48.278;16.378;2024-02-28T03:49:21;22.25;;;18.55;;
63217;SDS011;49314;48.278;16.378;2024-02-28T03:51:47;22.63;;;18.52;;
63217;SDS011;49314;48.278;16.378;2024-02-28T03:54:12;18.67;;;16.48;;
63217;SDS011;49314;48.278;16.378;2024-02-28T03:56:37;27.30;;;20.70;;
63217;SDS011;49314;48.278;16.378;2024-02-28T03:59:02;22.15;;;19.90;;
63217;SDS011;49314;48.278;16.378;2024-02-28T04:01:29;20.05;;;17.30;;
63217;SDS011;49314;48.278;16.378;2024-02-28T04:03:54;18.05;;;15.75;;
63217;SDS011;49314;48.278;16.378;2024-02-28T04:06:19;17.60;;;15.43;;
63217;SDS011;49314;48.278;16.378;2024-02-28T04:08:44;19.00;;;17.15;;
63217;SDS011;49314;48.278;16.378;2024-02-28T04:11:10;18.38;;;16.48;;
63217;SDS011;49314;48.278;16.378;2024-02-28T04:13:35;18.27;;;16.48;;
63217;SDS011;49314;48.278;16.378;2024-02-28T04:16:01;18.70;;;16.90;;
63217;SDS011;49314;48.278;16.378;2024-02-28T04:18:28;16.80;;;15.23;;
63217;SDS011;49314;48.278;16.378;2024-02-28T04:20:53;18.02;;;16.35;;
63217;SDS011;49314;48.278;16.378;2024-02-28T04:23:18;18.27;;;16.63;;
63217;SDS011;49314;48.278;16.378;2024-02-28T04:25:44;18.40;;;16.52;;
63217;SDS011;49314;48.278;16.378;2024-02-28T04:28:09;16.40;;;14.88;;
63217;SDS011;49314;48.278;16.378;2024-02-28T04:30:34;19.05;;;17.13;;
63217;SDS011;49314;48.278;16.378;2024-02-28T04:32:59;17.40;;;15.63;;
63217;SDS011;49314;48.278;16.378;2024-02-28T04:35:25;16.77;;;14.88;;
63217;SDS011;49314;48.278;16.378;2024-02-28T04:37:50;19.67;;;17.75;;
63217;SDS011;49314;48.278;16.378;2024-02-28T04:40:15;18.55;;;16.48;;
63217;SDS011;49314;48.278;16.378;2024-02-28T04:42:41;17.67;;;16.08;;
63217;SDS011;49314;48.278;16.378;2024-02-28T04:45:06;18.23;;;16.35;;
63217;SDS011;49314;48.278;16.378;2024-02-28T04:47:32;18.63;;;16.45;;
63217;SDS011;49314;48.278;16.378;2024-02-28T04:49:57;18.95;;;17.08;;
63217;SDS011;49314;48.278;16.378;2024-02-28T04:52:22;20.02;;;18.02;;
63217;SDS011;49314;48.278;16.378;2024-02-28T04:54:48;20.17;;;18.27;;
63217;SDS011;49314;48.278;16.378;2024-02-28T04:57:13;20.40;;;18.33;;
63217;SDS011;49314;48.278;16.378;2024-02-28T04:59:39;19.17;;;16.90;;
63217;SDS011;49314;48.278;16.378;2024-02-28T05:02:04;18.45;;;16.58;;
63217;SDS011;49314;48.278;16.378;2024-02-28T05:04:30;20.30;;;18.17;;
63217;SDS011;49314;48.278;16.378;2024-02-28T05:06:55;19.63;;;17.65;;
63217;SDS011;49314;48.278;16.378;2024-02-28T05:09:20;20.10;;;17.13;;
63217;SDS011;49314;48.278;16.378;2024-02-28T05:11:46;20.45;;;18.55;;
63217;SDS011;49314;48.278;16.378;2024-02-28T05:14:11;21.42;;;19.42;;
63217;SDS011;49314;48.278;16.378;2024-02-28T05:16:36;19.50;;;17.60;;
63217;SDS011;49314;48.278;16.378;2024-02-28T05:19:01;21.15;;;18.65;;
63217;SDS011;49314;48.278;16.378;2024-02-28T05:21:29;23.08;;;19.77;;
63217;SDS011;49314;48.278;16.378;2024-02-28T05:23:54;24.13;;;21.48;;
63217;SDS011;49314;48.278;16.378;2024-02-28T05:26:19;24.50;;;21.70;;
63217;SDS011;49314;48.278;16.378;2024-02-28T05:28:45;27.50;;;22.75;;
63217;SDS011;49314;48.278;16.378;2024-02-28T05:31:25;25.50;;;21.73;;
63217;SDS011;49314;48.278;16.378;2024-02-28T05:33:51;25.38;;;21.17;;
63217;SDS011;49314;48.278;16.378;2024-02-28T05:36:17;25.63;;;21.45;;
63217;SDS011;49314;48.278;16.378;2024-02-28T05:38:43;22.88;;;20.42;;
63217;SDS011;49314;48.278;16.378;2024-02-28T05:41:09;36.47;;;29.52;;
63217;SDS011;49314;48.278;16.378;2024-02-28T05:43:34;23.60;;;21.20;;
63217;SDS011;49314;48.278;16.378;2024-02-28T05:46:16;23.88;;;21.40;;
63217;SDS011;49314;48.278;16.378;2024-02-28T05:48:42;24.88;;;22.15;;
63217;SDS011;49314;48.278;16.378;2024-02-28T05:51:07;21.63;;;19.50;;
63217;SDS011;49314;48.278;16.378;2024-02-28T05:53:33;20.60;;;18.45;;
63217;SDS011;49314;48.278;16.378;2024-02-28T05:56:07;23.83;;;21.48;;
63217;SDS011;49314;48.278;16.378;2024-02-28T05:58:41;23.60;;;20.17;;
63217;SDS011;49314;48.278;16.378;2024-02-28T06:01:08;23.23;;;20.88;;
63217;SDS011;49314;48.278;16.378;2024-02-28T06:03:33;22.63;;;20.33;;
63217;SDS011;49314;48.278;16.378;2024-02-28T06:05:59;29.10;;;22.80;;
63217;SDS011;49314;48.278;16.378;2024-02-28T06:08:24;23.83;;;21.42;;
63217;SDS011;49314;48.278;16.378;2024-02-28T06:10:50;22.40;;;20.17;;
63217;SDS011;49314;48.278;16.378;2024-02-28T06:13:17;24.42;;;20.88;;
63217;SDS011;49314;48.278;16.378;2024-02-28T06:15:43;23.98;;;21.58;;
63217;SDS011;49314;48.278;16.378;2024-02-28T06:18:08;23.85;;;21.35;;
63217;SDS011;49314;48.278;16.378;2024-02-28T06:20:34;23.85;;;21.08;;
63217;SDS011;49314;48.278;16.378;2024-02-28T06:22:59;23.40;;;20.98;;
63217;SDS011;49314;48.278;16.378;2024-02-28T06:25:24;24.50;;;21.88;;
63217;SDS011;49314;48.278;16.378;2024-02-28T06:27:52;23.38;;;20.95;;
63217;SDS011;49314;48.278;16.378;2024-02-28T06:30:18;24.58;;;22.08;;
63217;SDS011;49314;48.278;16.378;2024-02-28T06:32:43;25.38;;;22.85;;
63217;SDS011;49314;48.278;16.378;2024-02-28T06:35:09;23.17;;;20.92;;
63217;SDS011;49314;48.278;16.378;2024-02-28T06:37:34;23.38;;;20.98;;
63217;SDS011;49314;48.278;16.378;2024-02-28T06:39:59;24.55;;;22.08;;
63217;SDS011;49314;48.278;16.378;2024-02-28T06:42:25;33.42;;;28.77;;
63217;SDS011;49314;48.278;16.378;2024-02-28T06:44:50;39.35;;;32.72;;
63217;SDS011;49314;48.278;16.378;2024-02-28T06:47:15;26.30;;;21.90;;
63217;SDS011;49314;48.278;16.378;2024-02-28T06:49:41;25.58;;;22.88;;
63217;SDS011;49314;48.278;16.378;2024-02-28T06:52:06;42.55;;;31.98;;
63217;SDS011;49314;48.278;16.378;2024-02-28T06:54:31;28.05;;;24.88;;
63217;SDS011;49314;48.278;16.378;2024-02-28T06:56:57;29.50;;;25.05;;
63217;SDS011;49314;48.278;16.378;2024-02-28T06:59:22;25.45;;;22.45;;
63217;SDS011;49314;48.278;16.378;2024-02-28T07:01:48;48.95;;;35.90;;
63217;SDS011;49314;48.278;16.378;2024-02-28T07:04:13;27.05;;;24.25;;
63217;SDS011;49314;48.278;16.378;2024-02-28T07:06:38;25.17;;;22.25;;
63217;SDS011;49314;48.278;16.378;2024-02-28T07:09:04;23.42;;;20.95;;
63217;SDS011;49314;48.278;16.378;2024-02-28T07:11:29;23.63;;;21.30;;
63217;SDS011;49314;48.278;16.378;2024-02-28T07:13:55;23.65;;;21.23;;
63217;SDS011;49314;48.278;16.378;2024-02-28T07:16:22;24.25;;;21.70;;
63217;SDS011;49314;48.278;16.378;2024-02-28T07:18:47;21.42;;;19.20;;
63217;SDS011;49314;48.278;16.378;2024-02-28T07:21:13;25.17;;;22.42;;
63217;SDS011;49314;48.278;16.378;2024-02-28T07:23:39;23.35;;;21.00;;
63217;SDS011;49314;48.278;16.378;2024-02-28T07:26:04;24.50;;;21.20;;
63217;SDS011;49314;48.278;16.378;2024-02-28T07:28:30;22.17;;;19.85;;
63217;SDS011;49314;48.278;16.378;2024-02-28T07:30:56;23.80;;;21.33;;
63217;SDS011;49314;48.278;16.378;2024-02-28T07:33:21;25.45;;;20.88;;
63217;SDS011;49314;48.278;16.378;2024-02-28T07:35:47;23.85;;;21.40;;
63217;SDS011;49314;48.278;16.378;2024-02-28T07:38:12;21.05;;;18.75;;
63217;SDS011;49314;48.278;16.378;2024-02-28T07:40:38;24.95;;;22.00;;
63217;SDS011;49314;48.278;16.378;2024-02-28T07:43:03;24.88;;;22.55;;
63217;SDS011;49314;48.278;16.378;2024-02-28T07:45:28;24.70;;;22.10;;
63217;SDS011;49314;48.278;16.378;2024-02-28T07:47:54;23.50;;;21.05;;
63217;SDS011;49314;48.278;16.378;2024-02-28T07:50:19;24.52;;;22.00;;
63217;SDS011;49314;48.278;16.378;2024-02-28T07:52:44;24.60;;;21.38;;
63217;SDS011;49314;48.278;16.378;2024-02-28T07:55:10;23.27;;;20.95;;
63217;SDS011;49314;48.278;16.378;2024-02-28T07:57:35;25.08;;;22.45;;
63217;SDS011;49314;48.278;16.378;2024-02-28T08:00:01;26.88;;;22.83;;
63217;SDS011;49314;48.278;16.378;2024-02-28T08:02:26;22.95;;;20.55;;
63217;SDS011;49314;48.278;16.378;2024-02-28T08:04:51;24.83;;;22.30;;
63217;SDS011;49314;48.278;16.378;2024-02-28T08:07:17;38.53;;;32.65;;
63217;SDS011;49314;48.278;16.378;2024-02-28T08:09:42;62.70;;;48.58;;
63217;SDS011;49314;48.278;16.378;2024-02-28T08:12:07;36.78;;;30.10;;
63217;SDS011;49314;48.278;16.378;2024-02-28T08:14:32;29.88;;;25.85;;
63217;SDS011;49314;48.278;16.378;2024-02-28T08:16:58;35.10;;;28.80;;
63217;SDS011;49314;48.278;16.378;2024-02-28T08:19:24;34.92;;;31.08;;
63217;SDS011;49314;48.278;16.378;2024-02-28T08:21:49;23.75;;;21.27;;
63217;SDS011;49314;48.278;16.378;2024-02-28T08:24:15;23.17;;;20.20;;
63217;SDS011;49314;48.278;16.378;2024-02-28T08:26:40;22.05;;;19.77;;
63217;SDS011;49314;48.278;16.378;2024-02-28T08:29:07;24.50;;;20.65;;
63217;SDS011;49314;48.278;16.378;2024-02-28T08:31:32;21.95;;;19.30;;
63217;SDS011;49314;48.278;16.378;2024-02-28T08:33:57;23.85;;;21.38;;
63217;SDS011;49314;48.278;16.378;2024-02-28T08:36:23;58.67;;;48.58;;
63217;SDS011;49314;48.278;16.378;2024-02-28T08:38:48;29.95;;;26.42;;
63217;SDS011;49314;48.278;16.378;2024-02-28T08:41:14;36.50;;;26.67;;
63217;SDS011;49314;48.278;16.378;2024-02-28T08:43:39;31.27;;;26.40;;
63217;SDS011;49314;48.278;16.378;2024-02-28T08:46:05;30.48;;;25.85;;
63217;SDS011;49314;48.278;16.378;2024-02-28T08:48:30;29.08;;;23.42;;
63217;SDS011;49314;48.278;16.378;2024-02-28T08:50:56;27.45;;;21.77;;
63217;SDS011;49314;48.278;16.378;2024-02-28T08:53:21;29.00;;;24.02;;
63217;SDS011;49314;48.278;16.378;2024-02-28T08:55:46;26.42;;;22.13;;
63217;SDS011;49314;48.278;16.378;2024-02-28T08:58:11;27.38;;;23.23;;
63217;SDS011;49314;48.278;16.378;2024-02-28T09:00:37;27.92;;;22.73;;
63217;SDS011;49314;48.278;16.378;2024-02-28T09:03:03;27.95;;;22.38;;
63217;SDS011;49314;48.278;16.378;2024-02-28T09:05:29;24.15;;;21.15;;
63217;SDS011;49314;48.278;16.378;2024-02-28T09:07:54;26.38;;;22.40;;
63217;SDS011;49314;48.278;16.378;2024-02-28T09:10:20;25.70;;;23.02;;
63217;SDS011;49314;48.278;16.378;2024-02-28T09:12:48;25.02;;;21.52;;
63217;SDS011;49314;48.278;16.378;2024-02-28T09:15:14;28.80;;;23.25;;
63217;SDS011;49314;48.278;16.378;2024-02-28T09:17:40;25.17;;;21.65;;
63217;SDS011;49314;48.278;16.378;2024-02-28T09:20:05;25.23;;;22.52;;
63217;SDS011;49314;48.278;16.378;2024-02-28T09:22:31;25.10;;;22.42;;
63217;SDS011;49314;48.278;16.378;2024-02-28T09:24:56;25.23;;;20.83;;
63217;SDS011;49314;48.278;16.378;2024-02-28T09:27:22;25.42;;;21.90;;
63217;SDS011;49314;48.278;16.378;2024-02-28T09:29:47;26.23;;;23.42;;
63217;SDS011;49314;48.278;16.378;2024-02-28T09:32:12;24.13;;;20.80;;
63217;SDS011;49314;48.278;16.378;2024-02-28T09:34:39;25.65;;;22.77;;
63217;SDS011;49314;48.278;16.378;2024-02-28T09:37:05;27.15;;;23.42;;
63217;SDS011;49314;48.278;16.378;2024-02-28T09:39:30;29.90;;;23.48;;
63217;SDS011;49314;48.278;16.378;2024-02-28T09:41:55;25.55;;;21.73;;
63217;SDS011;49314;48.278;16.378;2024-02-28T09:44:21;41.92;;;33.17;;
63217;SDS011;49314;48.278;16.378;2024-02-28T09:46:47;32.40;;;27.55;;
63217;SDS011;49314;48.278;16.378;2024-02-28T09:49:15;31.25;;;26.90;;
63217;SDS011;49314;48.278;16.378;2024-02-28T09:51:41;41.92;;;35.30;;
63217;SDS011;49314;48.278;16.378;2024-02-28T09:54:06;29.58;;;26.13;;
63217;SDS011;49314;48.278;16.378;2024-02-28T09:56:32;32.92;;;28.20;;
63217;SDS011;49314;48.278;16.378;2024-02-28T09:58:58;31.33;;;26.42;;
63217;SDS011;49314;48.278;16.378;2024-02-28T10:01:24;32.70;;;25.77;;
63217;SDS011;49314;48.278;16.378;2024-02-28T10:03:50;26.23;;;22.65;;
63217;SDS011;49314;48.278;16.378;2024-02-28T10:06:17;22.85;;;20.45;;
63217;SDS011;49314;48.278;16.378;2024-02-28T10:08:43;28.08;;;21.02;;
63217;SDS011;49314;48.278;16.378;2024-02-28T10:11:12;21.98;;;18.90;;
63217;SDS011;49314;48.278;16.378;2024-02-28T10:13:41;20.67;;;18.52;;
63217;SDS011;49314;48.278;16.378;2024-02-28T10:16:07;22.20;;;19.83;;
63217;SDS011;49314;48.278;16.378;2024-02-28T10:18:32;21.83;;;19.52;;
63217;SDS011;49314;48.278;16.378;2024-02-28T10:20:57;21.75;;;19.45;;
63217;SDS011;49314;48.278;16.378;2024-02-28T10:23:23;22.67;;;20.38;;
63217;SDS011;49314;48.278;16.378;2024-02-28T10:25:48;22.45;;;20.08;;
63217;SDS011;49314;48.278;16.378;2024-02-28T10:28:14;23.63;;;21.10;;
63217;SDS011;49314;48.278;16.378;2024-02-28T10:30:40;22.67;;;20.27;;
63217;SDS011;49314;48.278;16.378;2024-02-28T10:33:09;23.02;;;20.70;;
63217;SDS011;49314;48.278;16.378;2024-02-28T10:35:34;20.48;;;18.35;;
63217;SDS011;49314;48.278;16.378;2024-02-28T10:38:00;21.67;;;19.38;;
63217;SDS011;49314;48.278;16.378;2024-02-28T10:40:25;21.80;;;19.55;;
63217;SDS011;49314;48.278;16.378;2024-02-28T10:42:51;19.55;;;17.52;;
63217;SDS011;49314;48.278;16.378;2024-02-28T10:45:17;22.27;;;19.88;;
63217;SDS011;49314;48.278;16.378;2024-02-28T10:47:43;21.75;;;19.45;;
63217;SDS011;49314;48.278;16.378;2024-02-28T10:50:09;21.58;;;19.15;;
63217;SDS011;49314;48.278;16.378;2024-02-28T10:52:34;21.08;;;18.88;;
63217;SDS011;49314;48.278;16.378;2024-02-28T10:55:03;21.92;;;18.08;;
63217;SDS011;49314;48.278;16.378;2024-02-28T10:57:29;22.30;;;19.42;;
63217;SDS011;49314;48.278;16.378;2024-02-28T10:59:55;19.75;;;17.75;;
63217;SDS011;49314;48.278;16.378;2024-02-28T11:02:22;20.02;;;17.92;;
63217;SDS011;49314;48.278;16.378;2024-02-28T11:04:50;22.00;;;18.80;;
63217;SDS011;49314;48.278;16.378;2024-02-28T11:07:19;21.52;;;19.23;;
63217;SDS011;49314;48.278;16.378;2024-02-28T11:09:44;19.90;;;17.85;;
63217;SDS011;49314;48.278;16.378;2024-02-28T11:12:23;19.88;;;17.77;;
63217;SDS011;49314;48.278;16.378;2024-02-28T11:14:55;19.08;;;17.10;;
63217;SDS011;49314;48.278;16.378;2024-02-28T11:17:25;19.77;;;17.77;;
63217;SDS011;49314;48.278;16.378;2024-02-28T11:19:50;19.83;;;17.88;;
63217;SDS011;49314;48.278;16.378;2024-02-28T11:22:18;19.38;;;17.33;;
63217;SDS011;49314;48.278;16.378;2024-02-28T11:24:43;22.60;;;19.15;;
63217;SDS011;49314;48.278;16.378;2024-02-28T11:27:11;21.63;;;17.70;;
63217;SDS011;49314;48.278;16.378;2024-02-28T11:29:38;19.58;;;17.60;;
63217;SDS011;49314;48.278;16.378;2024-02-28T11:32:04;18.35;;;16.45;;
63217;SDS011;49314;48.278;16.378;2024-02-28T11:34:30;20.20;;;18.10;;
63217;SDS011;49314;48.278;16.378;2024-02-28T11:36:55;21.48;;;19.35;;
63217;SDS011;49314;48.278;16.378;2024-02-28T11:39:20;20.95;;;18.77;;
63217;SDS011;49314;48.278;16.378;2024-02-28T11:41:49;21.27;;;19.17;;
63217;SDS011;49314;48.278;16.378;2024-02-28T11:44:15;22.95;;;19.52;;
63217;SDS011;49314;48.278;16.378;2024-02-28T11:46:48;25.05;;;18.38;;
63217;SDS011;49314;48.278;16.378;2024-02-28T11:49:13;20.20;;;18.13;;
63217;SDS011;49314;48.278;16.378;2024-02-28T11:51:42;20.73;;;18.63;;
63217;SDS011;49314;48.278;16.378;2024-02-28T11:54:08;21.40;;;19.20;;
63217;SDS011;49314;48.278;16.378;2024-02-28T11:56:33;22.33;;;20.02;;
63217;SDS011;49314;48.278;16.378;2024-02-28T11:58:59;19.38;;;17.48;;
63217;SDS011;49314;48.278;16.378;2024-02-28T12:01:37;19.27;;;17.27;;
63217;SDS011;49314;48.278;16.378;2024-02-28T12:04:05;21.23;;;18.95;;
63217;SDS011;49314;48.278;16.378;2024-02-28T12:06:35;20.38;;;18.17;;
63217;SDS011;49314;48.278;16.378;2024-02-28T12:09:07;20.65;;;18.55;;
63217;SDS011;49314;48.278;16.378;2024-02-28T12:11:35;20.42;;;18.23;;
63217;SDS011;49314;48.278;16.378;2024-02-28T12:14:07;21.27;;;18.98;;
63217;SDS011;49314;48.278;16.378;2024-02-28T12:18:59;24.07;;;18.77;;
63217;SDS011;49314;48.278;16.378;2024-02-28T12:21:24;21.40;;;19.25;;
63217;SDS011;49314;48.278;16.378;2024-02-28T12:23:50;22.17;;;19.85;;
63217;SDS011;49314;48.278;16.378;2024-02-28T12:26:18;22.75;;;20.35;;
63217;SDS011;49314;48.278;16.378;2024-02-28T12:28:44;22.42;;;20.00;;
63217;SDS011;49314;48.278;16.378;2024-02-28T12:31:09;26.20;;;22.02;;
63217;SDS011;49314;48.278;16.378;2024-02-28T12:33:36;29.63;;;26.02;;
63217;SDS011;49314;48.278;16.378;2024-02-28T12:36:02;24.95;;;22.40;;
63217;SDS011;49314;48.278;16.378;2024-02-28T12:38:29;23.25;;;19.08;;
63217;SDS011;49314;48.278;16.378;2024-02-28T12:40:54;21.00;;;18.83;;
63217;SDS011;49314;48.278;16.378;2024-02-28T12:43:19;20.27;;;18.23;;
63217;SDS011;49314;48.278;16.378;2024-02-28T12:45:45;20.10;;;18.13;;
63217;SDS011;49314;48.278;16.378;2024-02-28T12:48:10;22.00;;;19.67;;
63217;SDS011;49314;48.278;16.378;2024-02-28T12:50:35;20.05;;;18.00;;
63217;SDS011;49314;48.278;16.378;2024-02-28T12:53:00;22.98;;;18.70;;
63217;SDS011;49314;48.278;16.378;2024-02-28T12:55:26;21.20;;;18.60;;
63217;SDS011;49314;48.278;16.378;2024-02-28T12:57:51;23.02;;;19.63;;
63217;SDS011;49314;48.278;16.378;2024-02-28T13:00:17;21.02;;;18.73;;
63217;SDS011;49314;48.278;16.378;2024-02-28T13:02:42;19.98;;;17.83;;
63217;SDS011;49314;48.278;16.378;2024-02-28T13:05:09;18.60;;;16.50;;
63217;SDS011;49314;48.278;16.378;2024-02-28T13:07:34;17.95;;;16.10;;
63217;SDS011;49314;48.278;16.378;2024-02-28T13:10:01;18.73;;;16.70;;
63217;SDS011;49314;48.278;16.378;2024-02-28T13:12:29;19.52;;;17.48;;
63217;SDS011;49314;48.278;16.378;2024-02-28T13:14:54;19.42;;;15.98;;
63217;SDS011;49314;48.278;16.378;2024-02-28T13:17:20;20.75;;;17.23;;
63217;SDS011;49314;48.278;16.378;2024-02-28T13:19:45;20.42;;;17.38;;
63217;SDS011;49314;48.278;16.378;2024-02-28T13:22:10;24.15;;;20.40;;
63217;SDS011;49314;48.278;16.378;2024-02-28T13:24:36;18.88;;;16.75;;
63217;SDS011;49314;48.278;16.378;2024-02-28T13:27:01;22.25;;;19.85;;
63217;SDS011;49314;48.278;16.378;2024-02-28T13:29:26;23.85;;;20.13;;
63217;SDS011;49314;48.278;16.378;2024-02-28T13:31:52;25.13;;;20.60;;
63217;SDS011;49314;48.278;16.378;2024-02-28T13:34:17;26.15;;;21.00;;
63217;SDS011;49314;48.278;16.378;2024-02-28T13:36:42;29.90;;;25.88;;
63217;SDS011;49314;48.278;16.378;2024-02-28T13:39:11;44.40;;;28.83;;
63217;SDS011;49314;48.278;16.378;2024-02-28T13:41:37;20.48;;;15.95;;
63217;SDS011;49314;48.278;16.378;2024-02-28T13:44:02;20.08;;;16.92;;
63217;SDS011;49314;48.278;16.378;2024-02-28T13:46:28;19.27;;;16.67;;
63217;SDS011;49314;48.278;16.378;2024-02-28T13:48:53;20.98;;;18.10;;
63217;SDS011;49314;48.278;16.378;2024-02-28T13:51:18;17.83;;;14.50;;
63217;SDS011;49314;48.278;16.378;2024-02-28T13:53:43;20.17;;;16.95;;
63217;SDS011;49314;48.278;16.378;2024-02-28T13:56:09;20.23;;;16.73;;
63217;SDS011;49314;48.278;16.378;2024-02-28T13:58:34;19.77;;;16.25;;
63217;SDS011;49314;48.278;16.378;2024-02-28T14:00:59;20.75;;;17.65;;
63217;SDS011;49314;48.278;16.378;2024-02-28T14:03:25;20.20;;;17.55;;
63217;SDS011;49314;48.278;16.378;2024-02-28T14:05:50;23.33;;;19.33;;
63217;SDS011;49314;48.278;16.378;2024-02-28T14:08:16;18.75;;;16.77;;